createdAt,value
2023-01-03T00:00:43.133Z,8.79
2023-01-03T00:02:06.344Z,8.78
2023-01-03T00:03:09.471Z,8.77
2023-01-03T00:04:13.162Z,8.78
2023-01-03T00:05:16.264Z,8.77
2023-01-03T00:06:28.586Z,8.77
2023-01-03T00:07:34.914Z,8.77
2023-01-03T00:08:38.153Z,8.76
2023-01-03T00:09:41.258Z,8.77
2023-01-03T00:10:44.385Z,8.76
2023-01-03T00:12:08.308Z,8.76
2023-01-03T00:13:11.439Z,8.76
2023-01-03T00:14:18.021Z,8.75
2023-01-03T00:15:21.072Z,8.75
2023-01-03T00:16:24.422Z,8.75
2023-01-03T00:17:28.977Z,8.75
2023-01-03T00:18:32.356Z,8.75
2023-01-03T00:19:38.415Z,8.74
2023-01-03T00:20:41.556Z,8.74
2023-01-03T00:21:44.666Z,8.74
2023-01-03T00:22:48.603Z,8.74
2023-01-03T00:23:51.850Z,8.74
2023-01-03T00:24:54.939Z,8.74
2023-01-03T00:25:57.991Z,8.75
2023-01-03T00:27:01.098Z,8.75
2023-01-03T00:28:04.638Z,8.75
2023-01-03T00:29:09.782Z,8.74
2023-01-03T00:30:13.294Z,8.73
2023-01-03T00:31:16.296Z,8.72
2023-01-03T00:32:19.799Z,8.72
2023-01-03T00:33:22.739Z,8.72
2023-01-03T00:34:26.557Z,8.71
2023-01-03T00:35:29.620Z,8.70
2023-01-03T00:36:33.254Z,8.69
2023-01-03T00:37:36.224Z,8.68
2023-01-03T00:38:39.828Z,8.67
2023-01-03T00:39:44.136Z,8.65
2023-01-03T00:40:47.337Z,8.65
2023-01-03T00:41:50.306Z,8.65
2023-01-03T00:43:14.180Z,8.64
2023-01-03T00:44:17.910Z,8.63
2023-01-03T00:45:23.419Z,8.61
2023-01-03T00:46:28.698Z,8.61
2023-01-03T00:47:31.857Z,8.60
2023-01-03T00:48:34.952Z,8.59
2023-01-03T00:49:39.115Z,8.59
2023-01-03T00:50:42.082Z,8.57
2023-01-03T00:51:47.480Z,8.56
2023-01-03T00:52:50.465Z,8.55
2023-01-03T00:53:56.217Z,8.54
2023-01-03T00:54:59.207Z,8.52
2023-01-03T00:56:04.545Z,8.51
2023-01-03T00:57:07.599Z,8.50
2023-01-03T00:58:10.581Z,8.49
2023-01-03T00:59:15.628Z,8.48
2023-01-03T01:00:18.953Z,8.47
2023-01-03T01:01:25.028Z,8.46
2023-01-03T01:02:28.212Z,8.45
2023-01-03T01:03:31.524Z,8.45
2023-01-03T01:04:34.541Z,8.44
2023-01-03T01:05:37.559Z,8.44
2023-01-03T01:06:44.412Z,8.44
2023-01-03T01:07:48.790Z,8.43
2023-01-03T01:08:54.574Z,8.43
2023-01-03T01:09:57.960Z,8.43
2023-01-03T01:11:03.912Z,8.40
2023-01-03T01:12:07.525Z,8.40
2023-01-03T01:13:10.614Z,8.38
2023-01-03T01:14:20.556Z,8.37
2023-01-03T01:15:23.768Z,8.36
2023-01-03T01:16:29.856Z,8.35
2023-01-03T01:17:32.871Z,8.35
2023-01-03T01:18:37.575Z,8.34
2023-01-03T01:19:43.498Z,8.33
2023-01-03T01:20:46.561Z,8.33
2023-01-03T01:21:49.665Z,8.31
2023-01-03T01:22:52.732Z,8.30
2023-01-03T01:23:56.747Z,8.28
2023-01-03T01:24:59.959Z,8.26
2023-01-03T01:26:04.497Z,8.26
2023-01-03T01:27:07.780Z,8.22
2023-01-03T01:28:10.794Z,8.21
2023-01-03T01:29:15.667Z,8.19
2023-01-03T01:30:19.092Z,8.18
2023-01-03T01:31:26.669Z,8.17
2023-01-03T01:32:30.897Z,8.16
2023-01-03T01:33:37.967Z,8.15
2023-01-03T01:34:42.092Z,8.15
2023-01-03T01:35:45.110Z,8.14
2023-01-03T01:36:48.552Z,8.14
2023-01-03T01:37:51.528Z,8.13
2023-01-03T01:38:58.051Z,8.12
2023-01-03T01:40:01.108Z,8.11
2023-01-03T01:41:04.602Z,8.11
2023-01-03T01:42:33.377Z,8.11
2023-01-03T01:44:17.209Z,8.10
2023-01-03T01:45:20.304Z,8.08
2023-01-03T01:46:29.180Z,8.07
2023-01-03T01:47:46.779Z,8.06
2023-01-03T01:48:55.502Z,8.06
2023-01-03T01:50:22.883Z,8.05
2023-01-03T01:51:29.817Z,8.05
2023-01-03T01:52:36.627Z,8.03
2023-01-03T01:53:42.501Z,8.04
2023-01-03T01:54:46.332Z,8.04
2023-01-03T01:55:52.016Z,8.04
2023-01-03T01:56:55.789Z,8.04
2023-01-03T01:58:01.859Z,8.05
2023-01-03T01:59:05.271Z,8.05
2023-01-03T02:00:09.765Z,8.05
2023-01-03T02:01:21.089Z,8.05
2023-01-03T02:02:24.605Z,8.04
2023-01-03T02:03:28.039Z,8.03
2023-01-03T02:04:35.881Z,8.02
2023-01-03T02:05:44.900Z,8.02
2023-01-03T02:06:50.077Z,8.02
2023-01-03T02:07:54.242Z,8.01
2023-01-03T02:08:59.528Z,8.01
2023-01-03T02:10:02.856Z,8.01
2023-01-03T02:11:22.735Z,8.02
2023-01-03T02:13:05.743Z,8.02
2023-01-03T02:14:30.220Z,7.99
2023-01-03T02:16:03.723Z,7.97
2023-01-03T02:17:19.988Z,7.96
2023-01-03T02:18:32.700Z,7.94
2023-01-03T02:19:49.146Z,7.93
2023-01-03T02:21:29.840Z,7.92
2023-01-03T02:22:42.091Z,7.90
2023-01-03T02:24:10.197Z,7.88
2023-01-03T02:25:36.224Z,7.88
2023-01-03T02:27:01.280Z,7.88
2023-01-03T02:28:13.300Z,7.88
2023-01-03T02:30:00.997Z,7.88
2023-01-03T02:32:43.206Z,7.88
2023-01-03T02:33:54.403Z,7.88
2023-01-03T02:35:06.338Z,7.88
2023-01-03T02:36:27.263Z,7.89
2023-01-03T02:37:37.336Z,7.90
2023-01-03T02:39:04.656Z,7.89
2023-01-03T02:40:25.482Z,7.89
2023-01-03T02:41:38.060Z,7.88
2023-01-03T02:42:58.629Z,7.88
2023-01-03T02:44:25.822Z,7.87
2023-01-03T02:45:50.499Z,7.87
2023-01-03T02:47:01.779Z,7.87
2023-01-03T02:48:24.418Z,7.86
2023-01-03T02:49:38.467Z,7.86
2023-01-03T02:50:57.959Z,7.85
2023-01-03T02:52:28.898Z,7.84
2023-01-03T02:53:38.115Z,7.85
2023-01-03T02:54:46.375Z,7.83
2023-01-03T02:55:52.458Z,7.82
2023-01-03T02:57:04.746Z,7.81
2023-01-03T02:58:20.150Z,7.80
2023-01-03T02:59:33.119Z,7.79
2023-01-03T03:00:41.723Z,7.78
2023-01-03T03:01:50.987Z,7.77
2023-01-03T03:03:03.101Z,7.77
2023-01-03T03:04:08.108Z,7.76
2023-01-03T03:05:18.616Z,7.76
2023-01-03T03:06:29.668Z,7.76
2023-01-03T03:07:36.551Z,7.76
2023-01-03T03:08:39.837Z,7.75
2023-01-03T03:10:01.090Z,7.74
2023-01-03T03:11:22.367Z,7.74
2023-01-03T03:12:48.095Z,7.73
2023-01-03T03:14:00.368Z,7.70
2023-01-03T03:15:05.259Z,7.68
2023-01-03T03:16:40.345Z,7.67
2023-01-03T03:17:45.478Z,7.63
2023-01-03T03:19:00.547Z,7.62
2023-01-03T03:20:35.161Z,7.59
2023-01-03T03:21:56.681Z,7.56
2023-01-03T03:23:29.023Z,7.54
2023-01-03T03:24:49.964Z,7.51
2023-01-03T03:25:59.333Z,7.48
2023-01-03T03:27:27.181Z,7.47
2023-01-03T03:28:36.302Z,7.47
2023-01-03T03:29:39.793Z,7.46
2023-01-03T03:30:44.591Z,7.46
2023-01-03T03:31:50.545Z,7.46
2023-01-03T03:32:58.522Z,7.47
2023-01-03T03:34:24.423Z,7.47
2023-01-03T03:35:29.083Z,7.46
2023-01-03T03:36:35.004Z,7.44
2023-01-03T03:37:40.860Z,7.43
2023-01-03T03:38:45.298Z,7.44
2023-01-03T03:40:06.982Z,7.44
2023-01-03T03:41:41.001Z,7.44
2023-01-03T03:43:09.034Z,7.43
2023-01-03T03:44:49.711Z,7.42
2023-01-03T03:46:03.653Z,7.41
2023-01-03T03:47:15.883Z,7.40
2023-01-03T03:48:52.155Z,7.40
2023-01-03T03:50:00.025Z,7.40
2023-01-03T03:51:14.161Z,7.38
2023-01-03T03:52:21.375Z,7.38
2023-01-03T03:53:29.705Z,7.38
2023-01-03T03:54:35.965Z,7.38
2023-01-03T03:55:47.832Z,7.39
2023-01-03T03:56:58.929Z,7.39
2023-01-03T03:58:11.525Z,7.38
2023-01-03T03:59:18.364Z,7.38
2023-01-03T04:00:27.365Z,7.36
2023-01-03T04:01:31.765Z,7.37
2023-01-03T04:02:36.457Z,7.38
2023-01-03T04:03:42.270Z,7.37
2023-01-03T04:04:49.865Z,7.37
2023-01-03T04:06:08.758Z,7.37
2023-01-03T04:07:11.902Z,7.38
2023-01-03T04:08:14.889Z,7.36
2023-01-03T04:09:18.682Z,7.37
2023-01-03T04:10:23.628Z,7.37
2023-01-03T04:11:27.073Z,7.37
2023-01-03T04:12:30.071Z,7.37
2023-01-03T04:13:34.829Z,7.37
2023-01-03T04:14:37.769Z,7.37
2023-01-03T04:15:40.712Z,7.37
2023-01-03T04:16:43.673Z,7.37
2023-01-03T04:17:47.069Z,7.37
2023-01-03T04:18:50.012Z,7.37
2023-01-03T04:19:53.064Z,7.37
2023-01-03T04:20:57.539Z,7.37
2023-01-03T04:22:00.465Z,7.36
2023-01-03T04:23:03.619Z,7.37
2023-01-03T04:24:07.248Z,7.36
2023-01-03T04:25:10.290Z,7.34
2023-01-03T04:26:13.278Z,7.34
2023-01-03T04:27:16.342Z,7.34
2023-01-03T04:28:19.876Z,7.33
2023-01-03T04:29:22.795Z,7.33
2023-01-03T04:30:25.788Z,7.32
2023-01-03T04:31:28.941Z,7.31
2023-01-03T04:32:31.928Z,7.32
2023-01-03T04:33:34.906Z,7.30
2023-01-03T04:34:38.140Z,7.31
2023-01-03T04:35:41.238Z,7.31
2023-01-03T04:36:44.333Z,7.31
2023-01-03T04:37:47.294Z,7.30
2023-01-03T04:38:50.289Z,7.30
2023-01-03T04:39:53.365Z,7.30
2023-01-03T04:40:56.379Z,7.30
2023-01-03T04:42:01.486Z,7.30
2023-01-03T04:43:23.127Z,7.29
2023-01-03T04:44:26.087Z,7.30
2023-01-03T04:45:29.133Z,7.30
2023-01-03T04:46:35.061Z,7.30
2023-01-03T04:47:38.006Z,7.30
2023-01-03T04:48:41.079Z,7.30
2023-01-03T04:49:46.093Z,7.29
2023-01-03T04:50:57.372Z,7.29
2023-01-03T04:52:00.552Z,7.27
2023-01-03T04:53:03.638Z,7.26
2023-01-03T04:54:06.863Z,7.26
2023-01-03T04:55:10.120Z,7.25
2023-01-03T04:56:13.185Z,7.24
2023-01-03T04:57:16.524Z,7.23
2023-01-03T04:58:20.863Z,7.22
2023-01-03T04:59:23.960Z,7.21
2023-01-03T05:00:26.991Z,7.20
2023-01-03T05:01:30.225Z,7.19
2023-01-03T05:02:33.516Z,7.18
2023-01-03T05:03:38.098Z,7.16
2023-01-03T05:04:41.381Z,7.15
2023-01-03T05:05:44.413Z,7.15
2023-01-03T05:06:47.328Z,7.13
2023-01-03T05:07:50.448Z,7.13
2023-01-03T05:08:53.822Z,7.12
2023-01-03T05:09:56.842Z,7.11
2023-01-03T05:10:59.879Z,7.11
2023-01-03T05:12:02.990Z,7.10
2023-01-03T05:13:06.121Z,7.10
2023-01-03T05:14:14.137Z,7.09
2023-01-03T05:15:17.545Z,7.08
2023-01-03T05:16:20.825Z,7.07
2023-01-03T05:17:23.939Z,7.06
2023-01-03T05:18:27.092Z,7.06
2023-01-03T05:19:30.068Z,7.06
2023-01-03T05:20:54.593Z,7.06
2023-01-03T05:22:16.275Z,7.04
2023-01-03T05:23:37.844Z,7.03
2023-01-03T05:24:59.466Z,7.02
2023-01-03T05:26:06.179Z,7.01
2023-01-03T05:27:09.200Z,7.01
2023-01-03T05:28:17.036Z,7.01
2023-01-03T05:29:22.170Z,7.01
2023-01-03T05:30:25.745Z,7.00
2023-01-03T05:31:28.822Z,7.00
2023-01-03T05:32:31.838Z,7.00
2023-01-03T05:33:37.304Z,6.99
2023-01-03T05:34:40.788Z,6.99
2023-01-03T05:35:47.636Z,6.98
2023-01-03T05:36:50.573Z,6.97
2023-01-03T05:37:54.352Z,6.97
2023-01-03T05:38:57.467Z,6.96
2023-01-03T05:40:00.567Z,6.95
2023-01-03T05:41:03.874Z,6.94
2023-01-03T05:42:06.905Z,6.94
2023-01-03T05:43:09.832Z,6.92
2023-01-03T05:44:12.795Z,6.92
2023-01-03T05:45:16.613Z,6.90
2023-01-03T05:46:19.758Z,6.90
2023-01-03T05:47:22.761Z,6.89
2023-01-03T05:48:25.721Z,6.88
2023-01-03T05:49:28.917Z,6.88
2023-01-03T05:50:32.791Z,6.86
2023-01-03T05:51:35.878Z,6.86
2023-01-03T05:52:38.864Z,6.84
2023-01-03T05:53:41.823Z,6.84
2023-01-03T05:54:44.913Z,6.83
2023-01-03T05:55:47.841Z,6.82
2023-01-03T05:56:51.456Z,6.80
2023-01-03T05:57:54.581Z,6.79
2023-01-03T05:58:58.058Z,6.78
2023-01-03T06:00:01.020Z,6.77
2023-01-03T06:01:11.616Z,6.76
2023-01-03T06:02:14.818Z,6.76
2023-01-03T06:03:17.787Z,6.74
2023-01-03T06:04:20.839Z,6.74
2023-01-03T06:05:24.153Z,6.73
2023-01-03T06:06:27.245Z,6.72
2023-01-03T06:07:31.204Z,6.71
2023-01-03T06:08:34.189Z,6.71
2023-01-03T06:09:37.244Z,6.71
2023-01-03T06:10:40.965Z,6.69
2023-01-03T06:11:44.611Z,6.68
2023-01-03T06:12:47.628Z,6.68
2023-01-03T06:13:50.555Z,6.68
2023-01-03T06:14:53.621Z,6.67
2023-01-03T06:16:24.867Z,6.65
2023-01-03T06:17:46.529Z,6.64
2023-01-03T06:18:49.780Z,6.62
2023-01-03T06:19:52.755Z,6.61
2023-01-03T06:20:55.632Z,6.61
2023-01-03T06:21:58.621Z,6.60
2023-01-03T06:23:01.594Z,6.59
2023-01-03T06:24:05.389Z,6.58
2023-01-03T06:25:08.856Z,6.58
2023-01-03T06:26:11.952Z,6.58
2023-01-03T06:27:15.089Z,6.58
2023-01-03T06:28:18.110Z,6.57
2023-01-03T06:29:21.012Z,6.57
2023-01-03T06:30:24.175Z,6.56
2023-01-03T06:31:27.958Z,6.55
2023-01-03T06:32:31.166Z,6.54
2023-01-03T06:33:34.337Z,6.54
2023-01-03T06:34:37.979Z,6.54
2023-01-03T06:35:41.211Z,6.52
2023-01-03T06:36:44.601Z,6.52
2023-01-03T06:37:47.641Z,6.52
2023-01-03T06:38:50.677Z,6.51
2023-01-03T06:39:53.550Z,6.51
2023-01-03T06:40:56.650Z,6.51
2023-01-03T06:42:20.290Z,6.51
2023-01-03T06:43:23.294Z,6.50
2023-01-03T06:44:26.305Z,6.49
2023-01-03T06:45:47.928Z,6.49
2023-01-03T06:47:09.474Z,6.48
2023-01-03T06:48:30.836Z,6.46
2023-01-03T06:49:52.778Z,6.46
2023-01-03T06:51:14.640Z,6.44
2023-01-03T06:52:36.165Z,6.42
2023-01-03T06:53:42.090Z,6.41
2023-01-03T06:54:45.014Z,6.40
2023-01-03T06:55:56.152Z,6.40
2023-01-03T06:57:00.331Z,6.40
2023-01-03T06:58:03.705Z,6.40
2023-01-03T06:59:06.642Z,6.40
2023-01-03T07:00:10.534Z,6.40
2023-01-03T07:01:15.252Z,6.40
2023-01-03T07:02:18.372Z,6.40
2023-01-03T07:03:22.707Z,6.40
2023-01-03T07:04:26.103Z,6.41
2023-01-03T07:05:29.605Z,6.41
2023-01-03T07:06:32.603Z,6.42
2023-01-03T07:07:35.550Z,6.42
2023-01-03T07:08:44.157Z,6.42
2023-01-03T07:09:50.787Z,6.42
2023-01-03T07:10:54.691Z,6.42
2023-01-03T07:11:57.687Z,6.42
2023-01-03T07:13:19.860Z,6.42
2023-01-03T07:14:22.740Z,6.42
2023-01-03T07:15:25.681Z,6.42
2023-01-03T07:16:31.635Z,6.42
2023-01-03T07:17:34.785Z,6.42
2023-01-03T07:18:37.669Z,6.41
2023-01-03T07:19:40.642Z,6.41
2023-01-03T07:20:44.475Z,6.41
2023-01-03T07:21:47.436Z,6.41
2023-01-03T07:22:50.443Z,6.42
2023-01-03T07:23:57.939Z,6.42
2023-01-03T07:25:00.983Z,6.42
2023-01-03T07:26:04.185Z,6.42
2023-01-03T07:27:07.215Z,6.42
2023-01-03T07:28:12.329Z,6.43
2023-01-03T07:29:15.393Z,6.43
2023-01-03T07:30:18.573Z,6.43
2023-01-03T07:31:21.616Z,6.43
2023-01-03T07:32:24.913Z,6.44
2023-01-03T07:33:28.335Z,6.44
2023-01-03T07:34:31.344Z,6.44
2023-01-03T07:35:35.828Z,6.45
2023-01-03T07:36:40.157Z,6.45
2023-01-03T07:37:43.163Z,6.45
2023-01-03T07:38:47.051Z,6.45
2023-01-03T07:39:50.125Z,6.45
2023-01-03T07:40:56.809Z,6.46
2023-01-03T07:42:18.546Z,6.46
2023-01-03T07:43:36.972Z,6.46
2023-01-03T07:44:40.020Z,6.46
2023-01-03T07:45:44.363Z,6.46
2023-01-03T07:46:47.403Z,6.46
2023-01-03T07:47:50.445Z,6.47
2023-01-03T07:48:57.355Z,6.47
2023-01-03T07:50:00.262Z,6.47
2023-01-03T07:51:05.991Z,6.47
2023-01-03T07:52:09.160Z,6.47
2023-01-03T07:53:16.729Z,6.47
2023-01-03T07:54:20.071Z,6.48
2023-01-03T07:55:23.033Z,6.49
2023-01-03T07:56:25.968Z,6.49
2023-01-03T07:57:29.539Z,6.49
2023-01-03T07:58:33.119Z,6.48
2023-01-03T07:59:36.336Z,6.48
2023-01-03T08:00:40.034Z,6.48
2023-01-03T08:01:43.042Z,6.49
2023-01-03T08:02:46.360Z,6.49
2023-01-03T08:03:50.454Z,6.50
2023-01-03T08:04:53.676Z,6.51
2023-01-03T08:06:00.532Z,6.52
2023-01-03T08:07:03.553Z,6.53
2023-01-03T08:08:06.753Z,6.54
2023-01-03T08:09:27.996Z,6.55
2023-01-03T08:10:49.414Z,6.57
2023-01-03T08:12:11.039Z,6.58
2023-01-03T08:13:19.862Z,6.60
2023-01-03T08:14:26.120Z,6.61
2023-01-03T08:15:29.881Z,6.62
2023-01-03T08:16:32.845Z,6.63
2023-01-03T08:17:35.747Z,6.64
2023-01-03T08:18:40.056Z,6.65
2023-01-03T08:19:45.676Z,6.64
2023-01-03T08:20:49.836Z,6.64
2023-01-03T08:21:52.950Z,6.65
2023-01-03T08:22:56.002Z,6.67
2023-01-03T08:23:59.171Z,6.69
2023-01-03T08:25:02.392Z,6.70
2023-01-03T08:26:16.812Z,6.73
2023-01-03T08:27:19.801Z,6.76
2023-01-03T08:28:22.879Z,6.77
2023-01-03T08:29:25.872Z,6.78
2023-01-03T08:30:29.693Z,6.79
2023-01-03T08:31:36.019Z,6.81
2023-01-03T08:32:39.129Z,6.83
2023-01-03T08:33:49.650Z,6.84
2023-01-03T08:34:54.393Z,6.86
2023-01-03T08:36:03.448Z,6.87
2023-01-03T08:37:10.382Z,6.87
2023-01-03T08:38:18.759Z,6.90
2023-01-03T08:39:26.605Z,6.91
2023-01-03T08:40:35.405Z,6.92
2023-01-03T08:41:47.429Z,6.94
2023-01-03T08:42:50.439Z,6.96
2023-01-03T08:43:55.295Z,6.98
2023-01-03T08:45:04.785Z,6.99
2023-01-03T08:46:11.809Z,7.00
2023-01-03T08:47:16.124Z,7.01
2023-01-03T08:48:21.298Z,7.02
2023-01-03T08:49:24.902Z,7.04
2023-01-03T08:50:31.009Z,7.05
2023-01-03T08:51:34.113Z,7.06
2023-01-03T08:52:37.540Z,7.07
2023-01-03T08:53:40.885Z,7.09
2023-01-03T08:54:44.089Z,7.10
2023-01-03T08:55:47.023Z,7.10
2023-01-03T08:56:49.928Z,7.11
2023-01-03T08:57:53.154Z,7.12
2023-01-03T08:58:58.850Z,7.13
2023-01-03T09:00:02.247Z,7.13
2023-01-03T09:01:06.815Z,7.14
2023-01-03T09:02:10.051Z,7.15
2023-01-03T09:03:13.345Z,7.16
2023-01-03T09:04:16.898Z,7.17
2023-01-03T09:05:19.932Z,7.18
2023-01-03T09:06:22.864Z,7.19
2023-01-03T09:07:25.959Z,7.20
2023-01-03T09:08:33.359Z,7.21
2023-01-03T09:09:36.406Z,7.22
2023-01-03T09:10:47.163Z,7.23
2023-01-03T09:11:50.644Z,7.23
2023-01-03T09:12:53.623Z,7.25
2023-01-03T09:13:56.685Z,7.26
2023-01-03T09:14:59.661Z,7.28
2023-01-03T09:16:07.523Z,7.28
2023-01-03T09:17:10.700Z,7.30
2023-01-03T09:18:14.959Z,7.29
2023-01-03T09:19:17.925Z,7.29
2023-01-03T09:20:20.959Z,7.30
2023-01-03T09:21:24.242Z,7.30
2023-01-03T09:22:27.279Z,7.31
2023-01-03T09:23:31.363Z,7.32
2023-01-03T09:24:34.867Z,7.33
2023-01-03T09:25:37.964Z,7.34
2023-01-03T09:26:41.070Z,7.34
2023-01-03T09:27:47.990Z,7.33
2023-01-03T09:28:51.232Z,7.31
2023-01-03T09:29:54.266Z,7.29
2023-01-03T09:30:57.418Z,7.28
2023-01-03T09:32:03.410Z,7.27
2023-01-03T09:33:06.726Z,7.26
2023-01-03T09:34:09.827Z,7.26
2023-01-03T09:35:12.822Z,7.27
2023-01-03T09:36:15.814Z,7.27
2023-01-03T09:37:19.396Z,7.27
2023-01-03T09:38:25.471Z,7.27
2023-01-03T09:39:28.375Z,7.27
2023-01-03T09:40:36.077Z,7.28
2023-01-03T09:41:40.044Z,7.29
2023-01-03T09:43:02.232Z,7.29
2023-01-03T09:44:08.692Z,7.31
2023-01-03T09:45:17.258Z,7.32
2023-01-03T09:46:23.207Z,7.33
2023-01-03T09:47:26.486Z,7.35
2023-01-03T09:48:35.542Z,7.36
2023-01-03T09:49:57.760Z,7.36
2023-01-03T09:51:19.615Z,7.35
2023-01-03T09:52:46.583Z,7.35
2023-01-03T09:54:07.730Z,7.34
2023-01-03T09:55:47.809Z,7.34
2023-01-03T09:57:26.330Z,7.34
2023-01-03T09:58:50.604Z,7.35
2023-01-03T10:00:12.433Z,7.35
2023-01-03T10:01:37.241Z,7.37
2023-01-03T10:03:27.330Z,7.40
2023-01-03T10:04:45.890Z,7.44
2023-01-03T10:06:09.381Z,7.44
2023-01-03T10:07:35.757Z,7.45
2023-01-03T10:08:42.319Z,7.43
2023-01-03T10:10:07.968Z,7.41
2023-01-03T10:11:26.078Z,7.38
2023-01-03T10:12:45.713Z,7.35
2023-01-03T10:14:03.857Z,7.35
2023-01-03T10:15:24.201Z,7.35
2023-01-03T10:16:37.459Z,7.36
2023-01-03T10:18:15.980Z,7.35
2023-01-03T10:19:39.855Z,7.31
2023-01-03T10:20:45.769Z,7.28
2023-01-03T10:22:11.671Z,7.26
2023-01-03T10:23:15.138Z,7.23
2023-01-03T10:24:46.293Z,7.23
2023-01-03T10:25:49.358Z,7.22
2023-01-03T10:26:56.184Z,7.21
2023-01-03T10:28:18.698Z,7.20
2023-01-03T10:29:21.693Z,7.20
2023-01-03T10:30:42.515Z,7.20
2023-01-03T10:32:19.893Z,7.21
2023-01-03T10:33:40.219Z,7.23
2023-01-03T10:34:43.167Z,7.23
2023-01-03T10:35:46.189Z,7.24
2023-01-03T10:36:49.165Z,7.28
2023-01-03T10:37:54.301Z,7.31
2023-01-03T10:39:10.398Z,7.34
2023-01-03T10:40:14.691Z,7.36
2023-01-03T10:41:23.497Z,7.39
2023-01-03T10:42:30.737Z,7.43
2023-01-03T10:43:39.774Z,7.47
2023-01-03T10:44:57.653Z,7.50
2023-01-03T10:46:04.100Z,7.50
2023-01-03T10:47:16.400Z,7.48
2023-01-03T10:48:19.419Z,7.45
2023-01-03T10:49:27.902Z,7.42
2023-01-03T10:50:37.906Z,7.40
2023-01-03T10:51:48.067Z,7.36
2023-01-03T10:53:06.587Z,7.32
2023-01-03T10:54:24.920Z,7.28
2023-01-03T10:55:28.409Z,7.24
2023-01-03T10:56:35.090Z,7.22
2023-01-03T10:57:53.182Z,7.20
2023-01-03T10:59:28.768Z,7.18
2023-01-03T11:00:37.082Z,7.16
2023-01-03T11:01:40.270Z,7.16
2023-01-03T11:02:47.277Z,7.16
2023-01-03T11:04:13.769Z,7.15
2023-01-03T11:05:21.729Z,7.14
2023-01-03T11:06:24.682Z,7.15
2023-01-03T11:07:27.690Z,7.17
2023-01-03T11:08:48.985Z,7.19
2023-01-03T11:09:56.800Z,7.21
2023-01-03T11:11:00.893Z,7.22
2023-01-03T11:12:14.798Z,7.23
2023-01-03T11:13:38.468Z,7.22
2023-01-03T11:14:55.150Z,7.22
2023-01-03T11:16:01.960Z,7.20
2023-01-03T11:17:06.002Z,7.20
2023-01-03T11:18:20.743Z,7.21
2023-01-03T11:19:27.656Z,7.22
2023-01-03T11:20:47.600Z,7.22
2023-01-03T11:22:30.995Z,7.20
2023-01-03T11:23:58.100Z,7.15
2023-01-03T11:25:11.807Z,7.13
2023-01-03T11:26:26.884Z,7.13
2023-01-03T11:27:42.391Z,7.13
2023-01-03T11:29:08.934Z,7.12
2023-01-03T11:30:40.248Z,7.13
2023-01-03T11:31:58.286Z,7.15
2023-01-03T11:33:48.652Z,7.15
2023-01-03T11:35:23.425Z,7.16
2023-01-03T11:36:48.707Z,7.15
2023-01-03T11:38:03.958Z,7.11
2023-01-03T11:39:32.915Z,7.08
2023-01-03T11:41:00.608Z,7.04
2023-01-03T11:42:09.306Z,7.03
2023-01-03T11:43:37.015Z,7.02
2023-01-03T11:45:01.318Z,7.00
2023-01-03T11:46:29.356Z,6.99
2023-01-03T11:47:45.428Z,6.98
2023-01-03T11:48:57.360Z,6.99
2023-01-03T11:50:41.137Z,6.99
2023-01-03T11:52:14.250Z,7.01
2023-01-03T11:53:38.288Z,7.02
2023-01-03T11:55:17.355Z,7.04
2023-01-03T11:56:30.996Z,7.06
2023-01-03T11:58:08.745Z,7.06
2023-01-03T11:59:57.017Z,7.06
2023-01-03T12:01:17.535Z,7.06
2023-01-03T12:03:02.099Z,7.06
2023-01-03T12:04:26.843Z,7.06
2023-01-03T12:05:30.046Z,7.07
2023-01-03T12:06:51.486Z,7.08
2023-01-03T12:08:16.745Z,7.09
2023-01-03T12:09:30.138Z,7.10
2023-01-03T12:10:46.084Z,7.09
2023-01-03T12:11:51.611Z,7.10
2023-01-03T12:13:29.178Z,7.11
2023-01-03T12:15:14.986Z,7.14
2023-01-03T12:16:47.532Z,7.13
2023-01-03T12:17:59.615Z,7.12
2023-01-03T12:19:12.735Z,7.12
2023-01-03T12:20:26.730Z,7.13
2023-01-03T12:21:36.682Z,7.13
2023-01-03T12:22:44.528Z,7.13
2023-01-03T12:23:58.823Z,7.14
2023-01-03T12:25:26.470Z,7.15
2023-01-03T12:26:30.512Z,7.14
2023-01-03T12:27:42.281Z,7.14
2023-01-03T12:29:06.004Z,7.15
2023-01-03T12:30:35.502Z,7.15
2023-01-03T12:31:58.397Z,7.15
2023-01-03T12:33:26.165Z,7.15
2023-01-03T12:34:47.157Z,7.17
2023-01-03T12:36:17.857Z,7.20
2023-01-03T12:37:23.308Z,7.24
2023-01-03T12:38:31.200Z,7.23
2023-01-03T12:39:40.038Z,7.24
2023-01-03T12:40:56.827Z,7.27
2023-01-03T12:42:04.779Z,7.30
2023-01-03T12:43:38.995Z,7.29
2023-01-03T12:44:47.241Z,7.28
2023-01-03T12:46:00.665Z,7.28
2023-01-03T12:47:06.258Z,7.27
2023-01-03T12:48:37.339Z,7.26
2023-01-03T12:49:55.715Z,7.22
2023-01-03T12:50:58.781Z,7.19
2023-01-03T12:52:02.048Z,7.18
2023-01-03T12:53:10.986Z,7.17
2023-01-03T12:54:42.571Z,7.18
2023-01-03T12:55:58.266Z,7.16
2023-01-03T12:57:34.105Z,7.14
2023-01-03T12:58:39.715Z,7.13
2023-01-03T12:59:57.742Z,7.13
2023-01-03T13:01:09.165Z,7.14
2023-01-03T13:02:48.950Z,7.14
2023-01-03T13:04:23.231Z,7.13
2023-01-03T13:05:38.812Z,7.12
2023-01-03T13:06:48.043Z,7.09
2023-01-03T13:08:09.925Z,7.07
2023-01-03T13:09:32.332Z,7.05
2023-01-03T13:10:38.151Z,7.03
2023-01-03T13:11:57.095Z,7.02
2023-01-03T13:13:01.921Z,7.01
2023-01-03T13:14:17.088Z,7.00
2023-01-03T13:15:36.674Z,6.98
2023-01-03T13:16:45.316Z,6.99
2023-01-03T13:17:49.703Z,7.00
2023-01-03T13:18:52.719Z,7.01
2023-01-03T13:20:17.780Z,7.00
2023-01-03T13:21:51.491Z,7.00
2023-01-03T13:22:56.914Z,6.97
2023-01-03T13:24:00.211Z,6.95
2023-01-03T13:25:41.137Z,6.93
2023-01-03T13:27:27.896Z,6.91
2023-01-03T13:28:40.439Z,6.91
2023-01-03T13:29:45.474Z,6.92
2023-01-03T13:30:48.818Z,6.92
2023-01-03T13:32:38.269Z,6.91
2023-01-03T13:33:53.990Z,6.88
2023-01-03T13:34:56.909Z,6.85
2023-01-03T13:36:01.760Z,6.82
2023-01-03T13:37:07.841Z,6.80
2023-01-03T13:38:27.421Z,6.80
2023-01-03T13:39:37.823Z,6.79
2023-01-03T13:41:16.740Z,6.77
2023-01-03T13:42:21.017Z,6.73
2023-01-03T13:43:34.638Z,6.72
2023-01-03T13:44:40.816Z,6.70
2023-01-03T13:45:43.856Z,6.69
2023-01-03T13:46:48.186Z,6.70
2023-01-03T13:47:53.965Z,6.72
2023-01-03T13:49:03.185Z,6.73
2023-01-03T13:50:22.171Z,6.74
2023-01-03T13:51:38.930Z,6.74
2023-01-03T13:53:11.525Z,6.75
2023-01-03T13:54:17.386Z,6.74
2023-01-03T13:55:41.527Z,6.73
2023-01-03T13:56:44.472Z,6.73
2023-01-03T13:57:53.392Z,6.72
2023-01-03T13:59:10.359Z,6.72
2023-01-03T14:00:19.266Z,6.71
2023-01-03T14:01:36.257Z,6.70
2023-01-03T14:02:58.190Z,6.69
2023-01-03T14:04:35.925Z,6.68
2023-01-03T14:05:54.614Z,6.65
2023-01-03T14:07:34.681Z,6.62
2023-01-03T14:09:11.697Z,6.61
2023-01-03T14:10:51.993Z,6.60
2023-01-03T14:12:25.574Z,6.58
2023-01-03T14:13:41.678Z,6.56
2023-01-03T14:14:53.050Z,6.54
2023-01-03T14:16:21.050Z,6.53
2023-01-03T14:17:29.577Z,6.52
2023-01-03T14:18:34.851Z,6.51
2023-01-03T14:19:40.647Z,6.51
2023-01-03T14:20:47.781Z,6.52
2023-01-03T14:21:57.870Z,6.52
2023-01-03T14:23:31.946Z,6.51
2023-01-03T14:24:35.892Z,6.50
2023-01-03T14:25:41.296Z,6.49
2023-01-03T14:26:44.612Z,6.49
2023-01-03T14:27:47.783Z,6.48
2023-01-03T14:28:53.460Z,6.48
2023-01-03T14:29:56.613Z,6.47
2023-01-03T14:31:06.059Z,6.45
2023-01-03T14:32:37.445Z,6.46
2023-01-03T14:33:46.674Z,6.44
2023-01-03T14:34:49.992Z,6.43
2023-01-03T14:36:14.435Z,6.43
2023-01-03T14:37:21.333Z,6.43
2023-01-03T14:38:27.049Z,6.42
2023-01-03T14:40:35.235Z,6.39
2023-01-03T14:41:39.412Z,6.37
2023-01-03T14:42:45.813Z,6.35
2023-01-03T14:43:49.011Z,6.35
2023-01-03T14:44:59.120Z,6.35
2023-01-03T14:46:06.749Z,6.33
2023-01-03T14:47:17.606Z,6.31
2023-01-03T14:48:22.252Z,6.28
2023-01-03T14:49:36.807Z,6.27
2023-01-03T14:50:42.673Z,6.26
2023-01-03T14:51:48.417Z,6.24
2023-01-03T14:52:54.645Z,6.23
2023-01-03T14:53:59.639Z,6.23
2023-01-03T14:55:07.198Z,6.21
2023-01-03T14:56:10.724Z,6.20
2023-01-03T14:57:24.016Z,6.20
2023-01-03T14:58:34.442Z,6.21
2023-01-03T14:59:37.866Z,6.21
2023-01-03T15:00:41.392Z,6.21
2023-01-03T15:01:46.353Z,6.22
2023-01-03T15:02:50.545Z,6.22
2023-01-03T15:03:55.525Z,6.22
2023-01-03T15:05:01.813Z,6.23
2023-01-03T15:06:31.917Z,6.24
2023-01-03T15:07:43.539Z,6.25
2023-01-03T15:08:49.118Z,6.25
2023-01-03T15:10:02.545Z,6.24
2023-01-03T15:11:08.942Z,6.24
2023-01-03T15:12:13.872Z,6.23
2023-01-03T15:13:25.405Z,6.22
2023-01-03T15:14:34.520Z,6.23
2023-01-03T15:15:39.720Z,6.21
2023-01-03T15:16:42.922Z,6.21
2023-01-03T15:17:48.757Z,6.20
2023-01-03T15:18:57.939Z,6.21
2023-01-03T15:20:01.621Z,6.22
2023-01-03T15:21:06.133Z,6.21
2023-01-03T15:22:12.076Z,6.24
2023-01-03T15:23:48.263Z,6.25
2023-01-03T15:25:02.767Z,6.26
2023-01-03T15:26:19.857Z,6.25
2023-01-03T15:27:38.694Z,6.23
2023-01-03T15:28:50.846Z,6.22
2023-01-03T15:29:54.685Z,6.22
2023-01-03T15:31:15.334Z,6.21
2023-01-03T15:32:19.592Z,6.21
2023-01-03T15:33:33.180Z,6.22
2023-01-03T15:34:41.623Z,6.22
2023-01-03T15:35:44.761Z,6.21
2023-01-03T15:36:57.815Z,6.22
2023-01-03T15:38:02.887Z,6.23